createdAt,value
2022-10-18T00:00:08.126Z,92.40
2022-10-18T00:02:35.263Z,92.40
2022-10-18T00:05:03.490Z,92.40
2022-10-18T00:07:30.862Z,92.40
2022-10-18T00:09:58.165Z,92.40
2022-10-18T00:12:25.254Z,92.30
2022-10-18T00:14:52.465Z,92.30
2022-10-18T00:17:19.620Z,92.30
2022-10-18T00:19:46.656Z,92.30
2022-10-18T00:22:13.698Z,92.20
2022-10-18T00:24:40.720Z,92.10
2022-10-18T00:27:07.798Z,92.10
2022-10-18T00:29:34.954Z,92.10
2022-10-18T00:32:02.005Z,92.00
2022-10-18T00:34:29.057Z,92.00
2022-10-18T00:36:56.197Z,92.00
2022-10-18T00:39:23.229Z,92.00
2022-10-18T00:41:51.173Z,91.90
2022-10-18T00:44:18.202Z,91.90
2022-10-18T00:46:49.046Z,91.90
2022-10-18T00:49:19.241Z,91.90
2022-10-18T00:51:49.861Z,91.80
2022-10-18T00:54:19.258Z,91.80
2022-10-18T00:56:46.581Z,91.80
2022-10-18T00:59:16.011Z,91.80
2022-10-18T01:01:43.493Z,91.90
2022-10-18T01:04:11.564Z,92.00
2022-10-18T01:06:49.268Z,92.10
2022-10-18T01:09:34.972Z,92.20
2022-10-18T01:12:14.256Z,92.30
2022-10-18T01:14:52.714Z,92.40
2022-10-18T01:17:46.522Z,92.50
2022-10-18T01:20:33.850Z,92.50
2022-10-18T01:23:07.714Z,92.50
2022-10-18T01:25:50.547Z,92.90
2022-10-18T01:28:45.455Z,92.60
2022-10-18T01:31:21.403Z,92.60
2022-10-18T01:33:53.849Z,92.50
2022-10-18T01:36:37.171Z,92.50
2022-10-18T01:39:11.191Z,92.50
2022-10-18T01:41:41.168Z,92.50
2022-10-18T01:44:12.858Z,92.40
2022-10-18T01:46:41.244Z,92.40
2022-10-18T01:49:08.536Z,92.40
2022-10-18T01:51:35.763Z,92.30
2022-10-18T01:54:02.903Z,92.30
2022-10-18T01:56:54.774Z,92.30
2022-10-18T01:59:45.836Z,92.30
2022-10-18T02:02:19.400Z,92.20
2022-10-18T02:05:02.844Z,92.20
2022-10-18T02:07:39.230Z,92.10
2022-10-18T02:10:21.274Z,92.10
2022-10-18T02:12:51.086Z,92.00
2022-10-18T02:15:24.843Z,91.90
2022-10-18T02:17:54.277Z,91.80
2022-10-18T02:20:24.438Z,91.80
2022-10-18T02:22:55.151Z,91.80
2022-10-18T02:25:25.321Z,91.70
2022-10-18T02:27:52.849Z,91.70
2022-10-18T02:30:25.256Z,91.60
2022-10-18T02:33:01.144Z,91.60
2022-10-18T02:35:37.557Z,91.50
2022-10-18T02:38:07.892Z,91.60
2022-10-18T02:40:35.141Z,91.60
2022-10-18T02:43:02.381Z,91.50
2022-10-18T02:45:29.420Z,91.50
2022-10-18T02:47:56.468Z,91.60
2022-10-18T02:50:23.577Z,91.60
2022-10-18T02:52:50.681Z,91.60
2022-10-18T02:55:18.190Z,91.60
2022-10-18T02:57:45.337Z,91.50
2022-10-18T03:00:13.030Z,91.60
2022-10-18T03:02:40.102Z,91.70
2022-10-18T03:05:07.489Z,91.60
2022-10-18T03:07:34.748Z,91.60
2022-10-18T03:10:02.021Z,91.60
2022-10-18T03:12:29.049Z,91.60
2022-10-18T03:14:56.099Z,91.60
2022-10-18T03:17:23.173Z,91.40
2022-10-18T03:19:50.214Z,91.40
2022-10-18T03:22:17.304Z,91.30
2022-10-18T03:24:45.442Z,91.30
2022-10-18T03:27:12.506Z,91.20
2022-10-18T03:29:40.498Z,91.10
2022-10-18T03:32:07.591Z,91.10
2022-10-18T03:34:34.626Z,91.00
2022-10-18T03:37:04.697Z,90.90
2022-10-18T03:39:32.563Z,90.70
2022-10-18T03:41:59.643Z,90.70
2022-10-18T03:44:26.682Z,90.60
2022-10-18T03:46:53.723Z,90.50
2022-10-18T03:49:20.832Z,90.40
2022-10-18T03:51:47.901Z,90.30
2022-10-18T03:54:14.938Z,90.20
2022-10-18T03:56:41.974Z,90.10
2022-10-18T03:59:09.047Z,90.10
2022-10-18T04:01:36.431Z,90.00
2022-10-18T04:04:03.656Z,89.90
2022-10-18T04:06:30.683Z,89.80
2022-10-18T04:08:57.694Z,89.70
2022-10-18T04:11:24.770Z,89.70
2022-10-18T04:13:51.795Z,89.60
2022-10-18T04:16:18.912Z,89.70
2022-10-18T04:18:45.928Z,89.70
2022-10-18T04:21:13.035Z,89.70
2022-10-18T04:23:40.211Z,89.70
2022-10-18T04:26:07.415Z,89.60
2022-10-18T04:28:35.277Z,89.60
2022-10-18T04:31:02.427Z,89.50
2022-10-18T04:33:29.495Z,89.50
2022-10-18T04:35:56.599Z,89.40
2022-10-18T04:38:23.940Z,89.50
2022-10-18T04:40:51.003Z,89.40
2022-10-18T04:43:18.072Z,89.50
2022-10-18T04:45:46.442Z,89.50
2022-10-18T04:48:14.315Z,89.50
2022-10-18T04:50:41.372Z,89.40
2022-10-18T04:53:08.458Z,89.50
2022-10-18T04:55:35.608Z,89.30
2022-10-18T04:58:02.641Z,89.30
2022-10-18T05:00:29.700Z,89.30
2022-10-18T05:02:57.901Z,89.10
2022-10-18T05:05:33.146Z,89.00
2022-10-18T05:08:12.802Z,89.00
2022-10-18T05:10:39.869Z,89.00
2022-10-18T05:13:07.017Z,88.70
2022-10-18T05:15:34.053Z,88.50
2022-10-18T05:18:01.100Z,88.40
2022-10-18T05:20:28.121Z,88.20
2022-10-18T05:22:55.149Z,88.20
2022-10-18T05:25:22.241Z,88.00
2022-10-18T05:27:49.297Z,88.00
2022-10-18T05:30:16.422Z,87.90
2022-10-18T05:32:43.445Z,88.10
2022-10-18T05:35:10.474Z,87.80
2022-10-18T05:37:37.503Z,87.70
2022-10-18T05:40:04.969Z,87.60
2022-10-18T05:42:32.197Z,87.50
2022-10-18T05:44:59.395Z,87.30
2022-10-18T05:47:26.451Z,87.20
2022-10-18T05:49:53.519Z,87.10
2022-10-18T05:52:20.541Z,87.00
2022-10-18T05:54:47.588Z,87.00
2022-10-18T05:57:14.715Z,87.00
2022-10-18T05:59:41.842Z,86.80
2022-10-18T06:02:11.707Z,87.00
2022-10-18T06:04:38.854Z,86.90
2022-10-18T06:07:10.939Z,86.90
2022-10-18T06:09:38.822Z,86.90
2022-10-18T06:12:06.139Z,87.00
2022-10-18T06:14:33.338Z,87.10
2022-10-18T06:17:00.372Z,87.90
2022-10-18T06:19:27.458Z,87.50
2022-10-18T06:21:54.503Z,87.60
2022-10-18T06:24:21.631Z,87.50
2022-10-18T06:26:49.368Z,87.40
2022-10-18T06:29:16.491Z,87.50
2022-10-18T06:31:43.546Z,87.40
2022-10-18T06:34:10.591Z,87.40
2022-10-18T06:36:37.677Z,87.40
2022-10-18T06:39:04.767Z,87.20
2022-10-18T06:41:31.787Z,87.10
2022-10-18T06:44:03.191Z,87.00
2022-10-18T06:46:30.216Z,86.90
2022-10-18T06:48:57.568Z,86.90
2022-10-18T06:51:24.591Z,87.20
2022-10-18T06:54:06.255Z,84.40
2022-10-18T06:56:38.825Z,85.30
2022-10-18T06:59:06.052Z,84.40
2022-10-18T07:01:33.211Z,84.70
2022-10-18T07:04:00.303Z,84.40
2022-10-18T07:06:27.383Z,84.70
2022-10-18T07:08:54.633Z,84.90
2022-10-18T07:11:26.728Z,84.70
2022-10-18T07:13:56.904Z,85.00
2022-10-18T07:16:23.988Z,85.10
2022-10-18T07:18:51.852Z,85.20
2022-10-18T07:21:21.764Z,85.30
2022-10-18T07:23:49.319Z,85.50
2022-10-18T07:26:27.052Z,85.80
2022-10-18T07:28:57.932Z,86.00
2022-10-18T07:31:25.855Z,86.20
2022-10-18T07:33:53.451Z,87.40
2022-10-18T07:36:22.032Z,87.00
2022-10-18T07:38:50.636Z,87.00
2022-10-18T07:41:17.979Z,87.20
2022-10-18T07:43:47.823Z,87.20
2022-10-18T07:46:15.661Z,87.40
2022-10-18T07:48:43.053Z,87.40
2022-10-18T07:51:10.530Z,87.50
2022-10-18T07:53:38.308Z,87.40
2022-10-18T07:56:09.571Z,87.40
2022-10-18T07:58:37.289Z,87.50
2022-10-18T08:01:08.754Z,87.50
2022-10-18T08:03:37.079Z,87.50
2022-10-18T08:06:06.064Z,87.50
2022-10-18T08:08:33.165Z,87.40
2022-10-18T08:11:14.948Z,87.40
2022-10-18T08:13:42.974Z,87.40
2022-10-18T08:16:15.433Z,87.40
2022-10-18T08:18:42.613Z,88.00
2022-10-18T08:21:11.998Z,87.10
2022-10-18T08:23:39.641Z,87.40
2022-10-18T08:26:09.885Z,87.50
2022-10-18T08:28:37.274Z,87.60
2022-10-18T08:31:10.595Z,87.70
2022-10-18T08:33:39.145Z,87.70
2022-10-18T08:36:08.149Z,87.70
2022-10-18T08:38:36.722Z,87.90
2022-10-18T08:41:30.932Z,88.10
2022-10-18T08:44:19.166Z,86.90
2022-10-18T08:46:49.229Z,87.10
2022-10-18T08:49:35.027Z,83.40
2022-10-18T08:52:04.029Z,85.50
2022-10-18T08:54:44.238Z,85.50
2022-10-18T08:57:15.627Z,85.70
2022-10-18T08:59:43.855Z,85.00
2022-10-18T09:02:16.246Z,85.30
2022-10-18T09:05:09.266Z,85.50
2022-10-18T09:08:02.583Z,86.10
2022-10-18T09:13:58.511Z,87.70
2022-10-18T09:16:39.712Z,87.00
2022-10-18T09:19:41.239Z,88.30
2022-10-18T09:22:18.896Z,88.40
2022-10-18T09:24:51.312Z,87.20
2022-10-18T09:27:20.576Z,86.60
2022-10-18T09:29:53.625Z,86.80
2022-10-18T09:32:47.858Z,85.60
2022-10-18T09:35:42.019Z,85.80
2022-10-18T09:38:18.896Z,85.50
2022-10-18T09:40:54.355Z,86.20
2022-10-18T09:43:25.751Z,86.50
2022-10-18T09:45:54.453Z,86.50
2022-10-18T09:48:58.390Z,86.60
2022-10-18T09:51:29.424Z,86.60
2022-10-18T09:54:14.616Z,86.30
2022-10-18T09:57:19.321Z,86.30
2022-10-18T09:59:48.183Z,86.10
2022-10-18T10:02:17.868Z,86.00
2022-10-18T10:04:45.272Z,86.10
2022-10-18T10:07:35.146Z,86.50
2022-10-18T10:10:26.601Z,86.20
2022-10-18T10:13:22.669Z,86.20
2022-10-18T10:15:54.384Z,86.40
2022-10-18T10:18:41.236Z,86.50
2022-10-18T10:21:15.003Z,86.60
2022-10-18T10:23:57.036Z,86.60
2022-10-18T10:26:30.152Z,86.50
2022-10-18T10:28:57.539Z,86.50
2022-10-18T10:31:24.573Z,86.60
2022-10-18T10:34:13.062Z,86.40
2022-10-18T10:36:51.836Z,86.70
2022-10-18T10:39:21.041Z,86.80
2022-10-18T10:42:00.290Z,86.90
2022-10-18T10:44:33.859Z,86.90
2022-10-18T10:47:01.243Z,87.10
2022-10-18T10:49:43.578Z,87.00
2022-10-18T10:52:27.443Z,86.90
2022-10-18T10:55:05.697Z,87.10
2022-10-18T10:57:49.701Z,87.10
2022-10-18T11:00:35.622Z,87.20
2022-10-18T11:03:27.469Z,87.40
2022-10-18T11:05:57.606Z,87.30
2022-10-18T11:08:28.041Z,87.30
2022-10-18T11:11:04.640Z,87.10
2022-10-18T11:13:49.932Z,87.20
2022-10-18T11:17:05.625Z,87.40
2022-10-18T11:20:01.265Z,87.20
2022-10-18T11:22:34.432Z,87.30
2022-10-18T11:25:03.814Z,87.40
2022-10-18T11:27:35.654Z,87.40
2022-10-18T11:30:13.246Z,87.30
2022-10-18T11:32:54.099Z,87.30
2022-10-18T11:35:44.443Z,86.90
2022-10-18T11:38:23.319Z,87.20
2022-10-18T11:41:19.231Z,87.20
2022-10-18T11:44:02.801Z,87.20
2022-10-18T11:46:48.082Z,87.20
2022-10-18T11:49:35.960Z,87.20
2022-10-18T11:52:14.963Z,87.10
2022-10-18T11:55:00.118Z,87.00
2022-10-18T11:57:42.014Z,86.70
2022-10-18T12:00:39.474Z,86.60
2022-10-18T12:03:24.173Z,86.90
2022-10-18T12:05:53.928Z,87.00
2022-10-18T12:08:44.000Z,87.40
2022-10-18T12:11:17.701Z,87.20
2022-10-18T12:13:47.483Z,87.20
2022-10-18T12:16:15.516Z,87.30
2022-10-18T12:18:49.948Z,87.30
2022-10-18T12:21:25.257Z,87.00
2022-10-18T12:23:58.242Z,86.80
2022-10-18T12:26:28.092Z,86.80
2022-10-18T12:29:06.554Z,86.60
2022-10-18T12:31:42.447Z,85.90
2022-10-18T12:34:54.209Z,85.90
2022-10-18T12:37:58.976Z,85.40
2022-10-18T12:40:40.765Z,84.90
2022-10-18T12:43:10.695Z,84.70
2022-10-18T12:45:49.277Z,84.60
2022-10-18T12:48:42.514Z,84.50
2022-10-18T12:51:16.894Z,84.70
2022-10-18T12:53:52.397Z,84.90
2022-10-18T12:56:28.664Z,84.70
2022-10-18T12:59:19.486Z,84.70
2022-10-18T13:01:52.905Z,84.60
2022-10-18T13:04:29.512Z,84.90
2022-10-18T13:06:59.679Z,85.10
2022-10-18T13:09:38.099Z,84.90
2022-10-18T13:12:11.229Z,84.80
2022-10-18T13:15:07.102Z,84.70
2022-10-18T13:17:47.745Z,84.50
2022-10-18T13:20:42.964Z,84.30
2022-10-18T13:23:25.203Z,84.20
2022-10-18T13:26:03.786Z,84.70
2022-10-18T13:28:52.905Z,84.20
2022-10-18T13:31:26.979Z,85.00
2022-10-18T13:33:54.186Z,86.30
2022-10-18T13:36:25.124Z,85.50
2022-10-18T13:38:57.899Z,83.40
2022-10-18T13:41:41.911Z,81.90
2022-10-18T13:44:28.263Z,83.40
2022-10-18T13:46:55.262Z,83.20
2022-10-18T13:49:25.103Z,81.70
2022-10-18T13:52:39.908Z,81.10
2022-10-18T13:55:25.863Z,84.00
2022-10-18T13:57:59.124Z,83.90
2022-10-18T14:00:48.209Z,84.20
2022-10-18T14:04:02.469Z,82.00
2022-10-18T14:06:42.341Z,84.30
2022-10-18T14:09:40.230Z,85.40
2022-10-18T14:12:21.260Z,84.70
2022-10-18T14:14:58.111Z,83.70
2022-10-18T14:20:29.776Z,85.80
2022-10-18T14:23:14.039Z,84.10
2022-10-18T14:25:41.467Z,85.50
2022-10-18T14:28:16.557Z,86.00
2022-10-18T14:31:02.784Z,85.40
2022-10-18T14:33:58.105Z,86.00
2022-10-18T14:36:29.433Z,86.10
2022-10-18T14:38:57.568Z,84.30
2022-10-18T14:41:32.673Z,85.00
2022-10-18T14:44:15.187Z,84.70
2022-10-18T14:46:44.802Z,86.30
2022-10-18T14:49:13.429Z,86.80
2022-10-18T14:51:43.775Z,87.30
2022-10-18T14:54:17.513Z,87.70
2022-10-18T14:56:45.372Z,87.50
2022-10-18T14:59:34.211Z,88.40
2022-10-18T15:02:09.549Z,88.60
2022-10-18T15:04:36.593Z,89.00
2022-10-18T15:07:07.079Z,88.30
2022-10-18T15:09:36.850Z,88.80
2022-10-18T15:12:06.170Z,88.00
2022-10-18T15:14:34.520Z,88.80
2022-10-18T15:17:30.941Z,88.60
2022-10-18T15:20:17.613Z,89.10
2022-10-18T15:22:46.579Z,89.30
2022-10-18T15:25:35.730Z,89.50
2022-10-18T15:28:02.817Z,89.50
2022-10-18T15:30:36.075Z,88.70
2022-10-18T15:33:09.646Z,89.20
2022-10-18T15:35:38.670Z,89.40
2022-10-18T15:38:31.786Z,89.30
2022-10-18T15:40:59.018Z,88.60
2022-10-18T15:43:26.014Z,89.00
2022-10-18T15:46:01.857Z,89.20
2022-10-18T15:48:41.621Z,88.70
2022-10-18T15:51:30.850Z,88.70
2022-10-18T15:53:57.895Z,87.80
2022-10-18T15:56:31.114Z,86.10
2022-10-18T15:59:00.905Z,85.90
2022-10-18T16:01:42.534Z,85.80
2022-10-18T16:04:27.910Z,86.30
2022-10-18T16:06:56.171Z,85.60
2022-10-18T16:09:25.947Z,86.10
2022-10-18T16:11:57.015Z,85.70
2022-10-18T16:14:25.929Z,85.80
2022-10-18T16:17:00.503Z,85.70
2022-10-18T16:19:28.231Z,85.60
2022-10-18T16:21:55.371Z,86.30
2022-10-18T16:24:23.038Z,86.40
2022-10-18T16:26:50.571Z,87.00
2022-10-18T16:29:28.696Z,86.80
2022-10-18T16:31:58.068Z,86.50
2022-10-18T16:34:27.028Z,86.30
2022-10-18T16:36:54.942Z,86.30
2022-10-18T16:39:22.684Z,85.90
2022-10-18T16:41:51.172Z,86.50
2022-10-18T16:44:19.086Z,87.00
2022-10-18T16:46:47.640Z,87.30
2022-10-18T16:49:25.225Z,87.40
2022-10-18T16:51:55.632Z,88.50
2022-10-18T16:54:23.444Z,90.40
2022-10-18T16:56:51.057Z,90.70
2022-10-18T16:59:36.410Z,90.70
2022-10-18T17:02:08.770Z,90.60
2022-10-18T17:04:35.856Z,90.50
2022-10-18T17:07:03.228Z,90.60
2022-10-18T17:09:30.489Z,90.60
2022-10-18T17:11:57.517Z,90.70
2022-10-18T17:14:24.568Z,90.80
2022-10-18T17:16:54.809Z,91.00
2022-10-18T17:19:23.186Z,91.00
2022-10-18T17:21:50.229Z,91.00
2022-10-18T17:24:17.253Z,91.00
2022-10-18T17:26:44.346Z,91.10
2022-10-18T17:29:11.461Z,91.20
2022-10-18T17:31:38.573Z,91.20
2022-10-18T17:34:05.689Z,91.40
2022-10-18T17:36:33.473Z,91.40
2022-10-18T17:39:00.735Z,91.40
2022-10-18T17:41:28.046Z,91.40
2022-10-18T17:43:55.377Z,91.40
2022-10-18T17:46:23.531Z,91.50
2022-10-18T17:48:50.582Z,91.50
2022-10-18T17:51:17.871Z,91.50
2022-10-18T17:53:45.281Z,91.50
2022-10-18T17:56:13.599Z,91.60
2022-10-18T17:58:43.427Z,91.60
2022-10-18T18:01:16.018Z,91.50
2022-10-18T18:03:43.166Z,91.50
2022-10-18T18:06:20.838Z,91.50
2022-10-18T18:08:49.185Z,91.50
2022-10-18T18:11:17.467Z,91.50
2022-10-18T18:13:44.609Z,91.60
2022-10-18T18:16:21.039Z,91.60
2022-10-18T18:18:50.746Z,91.60
2022-10-18T18:21:18.006Z,91.60
2022-10-18T18:23:45.411Z,91.60
2022-10-18T18:26:12.707Z,91.60
2022-10-18T18:28:39.875Z,91.60
2022-10-18T18:31:12.999Z,91.60
2022-10-18T18:33:40.129Z,91.60
2022-10-18T18:36:07.967Z,91.60
2022-10-18T18:38:37.714Z,91.60
2022-10-18T18:41:19.087Z,91.70
2022-10-18T18:44:00.668Z,91.70
2022-10-18T18:46:32.525Z,91.80
2022-10-18T18:49:00.101Z,91.80
2022-10-18T18:51:28.904Z,91.80
2022-10-18T18:53:56.120Z,91.80
2022-10-18T18:56:25.649Z,91.80
2022-10-18T18:58:53.444Z,91.80
2022-10-18T19:01:23.588Z,91.80
2022-10-18T19:03:52.528Z,91.90
2022-10-18T19:06:29.000Z,92.10
2022-10-18T19:09:01.725Z,91.80
2022-10-18T19:11:32.478Z,91.90
2022-10-18T19:14:00.865Z,91.90
2022-10-18T19:16:30.940Z,91.90
2022-10-18T19:19:11.740Z,91.90
2022-10-18T19:21:44.386Z,91.90
2022-10-18T19:24:11.905Z,91.90
2022-10-18T19:26:45.261Z,91.90
2022-10-18T19:29:21.301Z,91.90
2022-10-18T19:31:49.594Z,91.90
2022-10-18T19:34:17.715Z,92.20
2022-10-18T19:36:46.257Z,91.90
2022-10-18T19:39:19.195Z,91.90
2022-10-18T19:41:47.707Z,91.80
2022-10-18T19:44:15.347Z,91.80
2022-10-18T19:46:42.539Z,91.80
2022-10-18T19:49:09.617Z,91.80
2022-10-18T19:51:36.856Z,91.80
2022-10-18T19:54:04.279Z,91.80
2022-10-18T19:56:31.925Z,91.80
2022-10-18T19:58:59.770Z,91.90
2022-10-18T20:01:28.384Z,91.90
2022-10-18T20:03:55.849Z,91.90
2022-10-18T20:06:23.321Z,92.00
2022-10-18T20:08:50.846Z,92.10
2022-10-18T20:11:23.986Z,92.00
2022-10-18T20:13:51.466Z,92.00
2022-10-18T20:16:25.504Z,92.10
2022-10-18T20:18:59.747Z,92.10
2022-10-18T20:21:28.864Z,92.10
2022-10-18T20:23:56.514Z,92.10
2022-10-18T20:26:25.292Z,92.20
2022-10-18T20:28:58.025Z,92.30
2022-10-18T20:31:29.055Z,92.30
2022-10-18T20:34:01.295Z,92.30
2022-10-18T20:36:30.230Z,92.20
2022-10-18T20:38:57.810Z,92.10
2022-10-18T20:41:30.587Z,92.00
2022-10-18T20:43:59.787Z,91.90
2022-10-18T20:46:32.305Z,91.80
2022-10-18T20:48:59.772Z,91.80
2022-10-18T20:51:27.050Z,91.70
2022-10-18T20:53:54.278Z,91.60
2022-10-18T20:56:25.112Z,91.60
2022-10-18T20:58:55.164Z,91.50
2022-10-18T21:01:24.595Z,91.60
2022-10-18T21:03:53.809Z,91.50
2022-10-18T21:06:33.259Z,91.50
2022-10-18T21:09:06.523Z,91.50
2022-10-18T21:11:39.696Z,91.40
2022-10-18T21:14:11.107Z,91.40
2022-10-18T21:16:38.257Z,91.50
2022-10-18T21:19:08.044Z,91.40
2022-10-18T21:21:35.885Z,91.40
2022-10-18T21:24:06.910Z,91.40
2022-10-18T21:26:35.747Z,91.40
2022-10-18T21:29:04.248Z,91.20
2022-10-18T21:31:34.669Z,90.90
2022-10-18T21:34:04.218Z,90.60
2022-10-18T21:36:34.348Z,90.50
2022-10-18T21:39:06.312Z,89.90
2022-10-18T21:41:33.781Z,90.50
2022-10-18T21:44:03.471Z,90.30
2022-10-18T21:46:32.969Z,90.00
2022-10-18T21:49:00.037Z,90.20
2022-10-18T21:51:28.420Z,90.50
2022-10-18T21:53:57.349Z,90.60
2022-10-18T21:56:30.077Z,90.70
2022-10-18T21:58:57.871Z,90.60
2022-10-18T22:01:28.542Z,90.60
2022-10-18T22:03:56.984Z,90.60
2022-10-18T22:06:25.500Z,90.60
2022-10-18T22:08:55.331Z,90.60
2022-10-18T22:11:25.062Z,90.60
2022-10-18T22:13:52.969Z,90.70
2022-10-18T22:16:20.069Z,90.80
2022-10-18T22:18:48.330Z,90.90
2022-10-18T22:21:17.952Z,91.00
2022-10-18T22:23:50.110Z,91.00
2022-10-18T22:26:28.843Z,91.00
2022-10-18T22:29:01.213Z,91.20
2022-10-18T22:31:32.408Z,91.20
2022-10-18T22:34:03.062Z,91.20
2022-10-18T22:36:31.238Z,91.20
2022-10-18T22:38:58.467Z,91.30
2022-10-18T22:41:25.702Z,91.30
2022-10-18T22:43:53.682Z,91.40
2022-10-18T22:46:20.875Z,91.40
2022-10-18T22:48:48.543Z,91.50
2022-10-18T22:51:15.955Z,91.60
2022-10-18T22:53:43.395Z,91.60
2022-10-18T22:56:14.910Z,91.60
2022-10-18T22:58:41.959Z,91.70
2022-10-18T23:01:18.289Z,91.70
2022-10-18T23:03:45.867Z,91.70
2022-10-18T23:06:39.539Z,91.70
2022-10-18T23:09:10.067Z,91.80
2022-10-18T23:11:37.922Z,91.80
2022-10-18T23:14:06.383Z,91.80
2022-10-18T23:16:33.519Z,91.90
2022-10-18T23:19:00.712Z,91.90
2022-10-18T23:21:28.661Z,91.90
2022-10-18T23:23:56.822Z,91.90
2022-10-18T23:26:26.092Z,91.90
2022-10-18T23:28:54.033Z,91.90
2022-10-18T23:31:30.115Z,91.90
2022-10-18T23:33:58.759Z,91.90
2022-10-18T23:36:26.396Z,91.90
2022-10-18T23:38:53.839Z,91.90
2022-10-18T23:41:20.980Z,91.90
2022-10-18T23:43:48.593Z,91.90
2022-10-18T23:46:17.093Z,92.00
2022-10-18T23:48:44.632Z,92.10
2022-10-18T23:51:11.708Z,92.20
2022-10-18T23:53:39.080Z,92.20
2022-10-18T23:56:14.492Z,92.20
2022-10-18T23:58:42.519Z,92.20
